Terminal Aerodrome Forecast
Issued by NWS Cleveland, OH

Home | Current Version | Previous Version | Graphics & Text | Print | Product List | Glossary On
Versions: 1 2 3 4 5 6 7 8 9 10 11 12 13 14
749
FTUS41 KCLE 291932 AAA
TAFTOL
TAF AMD
KTOL 291932Z 2920/3018 23008KT P6SM SCT035
      TEMPO 2920/2921 -TSRA OVC035CB
     FM300000 26004KT P6SM SKC=

USA.gov is the U.S. government's official web portal to all federal, state and local government web resources and services.